createdAt,value
2022-12-25T09:00:07.267Z,6.90
2022-12-25T09:02:34.207Z,5.87
2022-12-25T09:05:01.002Z,5.37
2022-12-25T09:07:27.675Z,5.97
2022-12-25T09:09:54.262Z,6.17
2022-12-25T09:12:21.007Z,9.17
2022-12-25T09:14:47.609Z,14.13
2022-12-25T09:17:14.208Z,16.37
2022-12-25T09:19:40.821Z,15.97
2022-12-25T09:22:07.408Z,12.97
2022-12-25T09:24:34.012Z,10.90
2022-12-25T09:27:00.632Z,7.23
2022-12-25T09:29:27.749Z,6.83
2022-12-25T09:31:54.425Z,6.00
2022-12-25T09:34:20.994Z,7.00
2022-12-25T09:36:47.597Z,6.53
2022-12-25T09:39:14.184Z,5.87
2022-12-25T09:41:53.568Z,5.50
2022-12-25T09:44:24.471Z,4.70
2022-12-25T09:46:54.869Z,4.77
2022-12-25T09:49:42.201Z,6.27
2022-12-25T09:52:13.876Z,5.40
2022-12-25T09:54:49.629Z,6.57
2022-12-25T09:57:16.409Z,7.07
2022-12-25T09:59:44.685Z,5.07
2022-12-25T10:02:36.743Z,5.87
2022-12-25T10:05:25.514Z,5.70
2022-12-25T10:08:01.400Z,7.03
2022-12-25T10:10:56.968Z,4.47
2022-12-25T10:13:52.331Z,4.87
2022-12-25T10:16:32.091Z,5.03
2022-12-25T10:19:10.607Z,5.40
2022-12-25T10:21:37.349Z,36.10
2022-12-25T10:24:25.144Z,7.57
2022-12-25T10:26:53.874Z,4.00
2022-12-25T10:29:20.478Z,6.10
2022-12-25T10:31:49.935Z,5.27
2022-12-25T10:34:16.910Z,6.67
2022-12-25T10:36:45.075Z,6.43
2022-12-25T10:39:17.555Z,6.13
2022-12-25T10:42:18.063Z,5.87
2022-12-25T10:45:02.467Z,4.87
2022-12-25T10:47:33.633Z,4.87
2022-12-25T10:50:01.648Z,6.10
2022-12-25T10:52:29.203Z,3.73
2022-12-25T10:54:56.383Z,3.37
2022-12-25T10:57:24.723Z,6.20
2022-12-25T10:59:56.551Z,2.97
2022-12-25T11:02:28.999Z,2.40
2022-12-25T11:05:10.158Z,1.90
2022-12-25T11:07:46.807Z,4.40
2022-12-25T11:10:31.513Z,4.83
2022-12-25T11:12:59.565Z,4.80
2022-12-25T11:15:45.268Z,4.33
2022-12-25T11:18:22.480Z,2.97
2022-12-25T11:20:54.913Z,3.00
2022-12-25T11:23:23.317Z,4.10
2022-12-25T11:26:03.300Z,2.77
2022-12-25T11:28:31.517Z,3.80
2022-12-25T11:31:01.901Z,3.33
2022-12-25T11:33:34.834Z,3.20
2022-12-25T11:36:06.452Z,7.63
2022-12-25T11:38:33.179Z,8.30
2022-12-25T11:41:01.466Z,4.03
2022-12-25T11:43:56.470Z,6.33
2022-12-25T11:46:27.911Z,5.60
2022-12-25T11:49:00.757Z,3.80
2022-12-25T11:51:33.218Z,3.80
2022-12-25T11:54:05.083Z,2.50
2022-12-25T11:56:31.852Z,4.50
2022-12-25T11:59:31.280Z,44.70
2022-12-25T12:02:18.904Z,15.67
2022-12-25T12:04:49.100Z,34.33
2022-12-25T12:07:27.814Z,120.67
2022-12-25T12:10:07.569Z,143.87
2022-12-25T12:12:54.825Z,72.53
2022-12-25T12:15:41.556Z,22.73
2022-12-25T12:18:16.888Z,73.43
2022-12-25T12:20:43.572Z,53.73
2022-12-25T12:23:16.856Z,4.93
2022-12-25T12:25:44.745Z,3.97
2022-12-25T12:28:21.616Z,4.20
2022-12-25T12:31:03.199Z,3.80
2022-12-25T12:33:42.580Z,4.17
2022-12-25T12:36:12.450Z,4.70
2022-12-25T12:38:41.183Z,4.33
2022-12-25T12:41:09.200Z,5.03
2022-12-25T12:43:45.442Z,5.03
2022-12-25T12:46:36.661Z,6.30
2022-12-25T12:49:32.865Z,6.57
2022-12-25T12:52:07.223Z,7.80
2022-12-25T12:55:18.101Z,6.07
2022-12-25T12:57:44.849Z,12.73
2022-12-25T13:00:17.849Z,20.40
2022-12-25T13:03:35.497Z,11.67
2022-12-25T13:06:21.104Z,8.70
2022-12-25T13:09:11.015Z,8.97
2022-12-25T13:11:40.909Z,7.57
2022-12-25T13:14:16.245Z,7.53
2022-12-25T13:16:45.819Z,7.60
2022-12-25T13:19:22.361Z,8.07
2022-12-25T13:21:59.068Z,7.57
2022-12-25T13:24:30.624Z,7.53
2022-12-25T13:26:57.545Z,7.40
2022-12-25T13:29:28.919Z,7.70
2022-12-25T13:31:56.513Z,8.47
2022-12-25T13:34:42.339Z,8.53
2022-12-25T13:37:21.540Z,9.00
2022-12-25T13:40:02.162Z,8.83
2022-12-25T13:42:32.865Z,7.73
2022-12-25T13:45:02.032Z,8.47
2022-12-25T13:47:56.132Z,9.20
2022-12-25T13:50:35.089Z,10.30
2022-12-25T13:53:16.786Z,14.30
2022-12-25T19:24:44.349Z,15.37
